This is the latest recevied weather packets stored in our database for station/object WX6HNX-6. If no packets are shown the sender has not sent any weather packets the latest 1 day(s).
| Time | Temp. | Humidity | Pressure | Rain* | Wind** | Luminosity | Snow |
|---|---|---|---|---|---|---|---|
| 1778096556 | 23.33° C | 52% | 1019.1 hPa | 0 mm | - | - | - |
| 1778095656 | 22.78° C | 51% | 1019.2 hPa | 0 mm | - | - | - |
| 1778095356 | 22.22° C | 54% | 1019.4 hPa | 0 mm | - | - | - |
| 1778093856 | 21.67° C | 55% | 1019.6 hPa | 0 mm | - | - | - |
| 1778093256 | 21.11° C | 57% | 1019.7 hPa | 0 mm | - | - | - |
| 1778088757 | 20° C | 61% | 1020.2 hPa | 0 mm | - | - | - |
| 1778088156 | 19.44° C | 64% | 1020.3 hPa | 0 mm | - | - | - |
| 1778087556 | 18.89° C | 64% | 1020.2 hPa | 0 mm | - | - | - |
| 1778086056 | 18.33° C | 66% | 1020.3 hPa | 0 mm | - | - | - |
| 1778084255 | 17.78° C | 70% | 1020.3 hPa | 0 mm | - | - | - |
| 1778082155 | 16.11° C | 74% | 1020.6 hPa | 0 mm | - | - | - |
| 1778081856 | 16.11° C | 75% | 1020.6 hPa | 0 mm | - | - | - |
| 1778080115 | 14.44° C | 79% | 1020.6 hPa | 0 mm | - | - | - |
| 1778076516 | 11.11° C | 81% | 1020.4 hPa | 0 mm | - | - | - |
| 1778076215 | 10.56° C | 81% | 1020.4 hPa | 0 mm | - | - | - |
| 1778075615 | 10.56° C | 81% | 1020.3 hPa | 0 mm | - | - | - |
| 1778074115 | 9.44° C | 81% | 1020 hPa | 0 mm | - | - | - |
| 1778073340 | 9.44° C | 80% | 1019.9 hPa | 0 mm | - | - | - |
| 1778073040 | 9.44° C | 80% | 1019.8 hPa | 0 mm | - | - | - |
| 1778072267 | 10° C | 80% | 1019.7 hPa | 0 mm | - | - | - |
| 1778071667 | 10° C | 80% | 1019.6 hPa | 0 mm | - | - | - |
| 1778071367 | 10° C | 80% | 1019.6 hPa | 0 mm | - | - | - |
| 1778071067 | 10° C | 80% | 1019.6 hPa | 0 mm | - | - | - |
| 1778069740 | 10° C | 79% | 1019.3 hPa | 0 mm | - | - | - |
| 1778068840 | 10° C | 79% | 1019.3 hPa | 0 mm | - | - | - |
* Rain latest hour (hover to see other rain measurements)
** Current wind speed in m/s (hover to see current wind gust speed)